Time;durP1;ratioP1;P1;durP2;ratioP2;P2;SDS_P1;SDS_P2;PMS_P1;PMS_P2;Temp;Humidity;BMP_temperature;BMP_pressure;BME280_temperature;BME280_humidity;BME280_pressure;Samples;Min_cycle;Max_cycle;Signal;HPM_P1;HPM_P2
2022/01/18 00:00:25;;;;;;;29.90;19.05;;;;;;;6.11;93.63;99935.53;4071833;28;20717;-84
2022/01/18 00:02:28;;;;;;;29.05;18.30;;;;;;;6.11;94.03;99936.38;4078990;29;20203;-84
2022/01/18 00:04:32;;;;;;;29.45;17.30;;;;;;;6.11;94.51;99951.91;4073620;29;20210;-84
2022/01/18 00:06:38;;;;;;;30.20;18.25;;;;;;;6.12;94.34;99951.03;4056067;29;21008;-83
2022/01/18 00:08:42;;;;;;;29.17;17.70;;;;;;;6.13;94.18;99950.16;4084675;29;20274;-84
2022/01/18 00:10:45;;;;;;;25.75;16.73;;;;;;;6.13;93.76;99952.75;4070385;29;20211;-84
2022/01/18 00:13:08;;;;;;;30.80;18.40;;;;;;;6.15;94.16;99950.13;4075508;29;20239;-84
2022/01/18 00:15:31;;;;;;;28.60;17.55;;;;;;;6.18;94.33;99956.06;4067375;29;20761;-84
2022/01/18 00:17:41;;;;;;;29.08;17.98;;;;;;;6.20;94.44;99950.88;4072794;29;20717;-84
2022/01/18 00:19:52;;;;;;;30.45;18.73;;;;;;;6.21;94.41;99940.47;4071425;29;20621;-84
2022/01/18 00:22:10;;;;;;;29.98;17.83;;;;;;;6.23;94.51;99943.88;4075582;29;20295;-84
2022/01/18 00:24:13;;;;;;;28.33;18.75;;;;;;;6.21;94.05;99945.66;4070084;29;20208;-84
2022/01/18 00:26:35;;;;;;;27.83;17.38;;;;;;;6.20;94.17;99954.31;4076473;29;20243;-84
2022/01/18 00:28:38;;;;;;;26.98;16.38;;;;;;;6.21;94.32;99957.75;4075742;29;20207;-84
2022/01/18 00:31:09;;;;;;;27.40;17.27;;;;;;;6.21;93.78;99958.59;4073046;29;20211;-84
2022/01/18 00:33:18;;;;;;;29.88;18.83;;;;;;;6.21;94.10;99950.84;4075464;29;20202;-83
2022/01/18 00:35:42;;;;;;;28.77;17.17;;;;;;;6.21;93.48;99950.00;4075670;29;20600;-84
2022/01/18 00:37:53;;;;;;;35.30;19.48;;;;;;;6.15;93.93;99955.31;4057106;29;20238;-84
2022/01/18 00:39:56;;;;;;;27.65;16.67;;;;;;;6.12;93.96;99956.22;4087787;29;20257;-84
2022/01/18 00:41:59;;;;;;;30.83;18.65;;;;;;;6.12;93.92;99963.97;4075225;29;20297;-84
2022/01/18 00:44:03;;;;;;;30.52;19.10;;;;;;;6.12;93.82;99965.72;4077838;29;20211;-83
2022/01/18 00:46:06;;;;;;;26.40;16.90;;;;;;;6.12;94.26;99966.56;4088774;29;20598;-83
2022/01/18 00:48:10;;;;;;;29.45;17.83;;;;;;;6.13;94.61;99970.88;4075254;29;20195;-83
2022/01/18 00:50:13;;;;;;;30.58;18.08;;;;;;;6.14;94.39;99972.56;4073430;29;20295;-83
2022/01/18 00:52:19;;;;;;;30.23;18.52;;;;;;;6.18;94.67;99976.81;4076918;29;20214;-84
2022/01/18 00:54:28;;;;;;;30.35;17.90;;;;;;;6.21;94.78;99968.97;4071921;29;20278;-86
2022/01/18 00:56:32;;;;;;;30.33;18.40;;;;;;;6.23;94.54;99968.94;4074585;29;20214;-84
2022/01/18 00:58:35;;;;;;;25.13;17.08;;;;;;;6.24;94.46;99966.31;4079064;29;20247;-84
2022/01/18 01:00:38;;;;;;;27.45;16.95;;;;;;;6.24;94.09;99965.44;4071234;29;20228;-84
2022/01/18 01:02:42;;;;;;;30.17;19.00;;;;;;;6.24;94.26;99978.38;4077715;29;20215;-84
2022/01/18 01:04:48;;;;;;;29.15;17.77;;;;;;;6.24;94.13;99976.69;4073912;29;21161;-84
2022/01/18 01:06:51;;;;;;;27.33;17.73;;;;;;;6.25;94.31;99983.53;4074316;29;20239;-84
2022/01/18 01:08:54;;;;;;;28.55;18.05;;;;;;;6.26;94.28;99974.06;4062631;29;20213;-84
2022/01/18 01:10:59;;;;;;;29.35;19.95;;;;;;;6.27;94.38;99976.63;4074235;29;20217;-83
2022/01/18 01:13:02;;;;;;;30.73;19.80;;;;;;;6.29;94.11;99980.00;4070203;29;20220;-84
2022/01/18 01:15:11;;;;;;;31.98;17.95;;;;;;;6.30;94.27;99980.84;4069565;29;20885;-84
2022/01/18 01:17:27;;;;;;;27.35;17.80;;;;;;;6.32;94.04;99986.88;4076485;29;20198;-84
2022/01/18 01:36:47;;;;;;;30.45;17.88;;;;;;;6.19;93.95;100004.41;4091638;28;20250;-83
2022/01/18 01:43:47;;;;;;;33.22;19.40;;;;;;;6.20;94.56;100008.69;4072122;29;20230;-83
2022/01/18 01:45:52;;;;;;;30.27;17.80;;;;;;;6.19;94.01;100014.78;4070789;29;20207;-83
2022/01/18 01:47:55;;;;;;;27.58;17.50;;;;;;;6.19;94.28;100014.78;4053843;29;20265;-83
2022/01/18 01:49:58;;;;;;;26.48;16.95;;;;;;;6.19;94.04;100014.78;4070666;29;20208;-83
2022/01/18 01:52:05;;;;;;;30.98;18.65;;;;;;;6.21;94.18;100019.94;4066469;29;20207;-85
2022/01/18 01:54:11;;;;;;;27.63;17.13;;;;;;;6.22;94.30;100021.63;4064578;29;20710;-86
2022/01/18 01:56:14;;;;;;;33.38;19.23;;;;;;;6.23;94.77;100011.22;4074551;29;20241;-82
2022/01/18 01:58:18;;;;;;;32.22;19.25;;;;;;;6.25;94.76;100019.81;4069875;29;20215;-83
2022/01/18 02:00:23;;;;;;;29.55;17.30;;;;;;;6.26;94.07;100018.09;4069493;29;20235;-83
2022/01/18 02:02:30;;;;;;;31.23;19.83;;;;;;;6.27;94.50;100017.19;4068769;29;20667;-83
2022/01/18 02:04:35;;;;;;;36.47;18.70;;;;;;;6.28;94.16;100018.91;4069462;29;20215;-83
2022/01/18 02:06:38;;;;;;;33.05;19.52;;;;;;;6.29;94.20;100023.22;4068961;29;20211;-83
2022/01/18 02:08:41;;;;;;;30.77;18.77;;;;;;;6.27;94.21;100018.06;4071495;29;20206;-83
2022/01/18 02:10:45;;;;;;;28.05;17.85;;;;;;;6.29;94.58;100015.44;4071484;29;20266;-83
2022/01/18 02:12:48;;;;;;;29.25;17.98;;;;;;;6.31;94.24;100016.25;4066153;29;20647;-83
2022/01/18 02:15:01;;;;;;;33.45;18.92;;;;;;;6.31;93.92;100009.31;4068489;29;20570;-83
2022/01/18 02:21:51;;;;;;;32.63;19.17;;;;;;;6.31;94.42;99996.38;4077569;29;20214;-83
2022/01/18 02:23:54;;;;;;;31.73;19.67;;;;;;;6.32;94.15;100003.25;4063995;29;20207;-83
2022/01/18 02:25:57;;;;;;;34.60;20.35;;;;;;;6.33;94.11;100007.56;4075010;29;20258;-83
2022/01/18 02:28:00;;;;;;;33.45;19.58;;;;;;;6.32;93.79;100003.25;4073659;29;20223;-83
2022/01/18 02:30:05;;;;;;;34.60;20.27;;;;;;;6.32;94.21;100007.59;4073472;29;20239;-83
2022/01/18 02:32:09;;;;;;;30.83;19.10;;;;;;;6.29;94.27;100000.72;4074194;29;20230;-83
2022/01/18 02:34:14;;;;;;;31.50;19.02;;;;;;;6.32;94.38;100005.84;4074683;29;20638;-83
2022/01/18 02:36:18;;;;;;;33.97;19.90;;;;;;;6.33;94.31;100004.09;4069646;29;20226;-83
2022/01/18 02:38:22;;;;;;;32.53;18.77;;;;;;;6.34;94.57;100009.25;4061083;29;20620;-83
2022/01/18 02:40:25;;;;;;;31.67;19.15;;;;;;;6.34;94.22;100004.06;4055403;29;20633;-83
2022/01/18 02:42:40;;;;;;;31.80;19.88;;;;;;;6.35;94.25;100008.38;4069056;29;20228;-83
2022/01/18 02:44:44;;;;;;;31.15;19.30;;;;;;;6.37;95.45;100003.16;4074698;29;20215;-83
2022/01/18 02:46:48;;;;;;;37.28;20.67;;;;;;;6.38;94.92;100000.53;4073499;29;20685;-83
2022/01/18 02:48:52;;;;;;;36.58;20.40;;;;;;;6.37;94.64;100009.19;4066351;29;20211;-85
2022/01/18 02:50:55;;;;;;;35.13;21.08;;;;;;;6.41;94.53;100005.66;4074600;29;20281;-84
2022/01/18 02:52:58;;;;;;;36.60;20.10;;;;;;;6.40;94.81;99995.34;4066823;29;20305;-84
2022/01/18 02:55:04;;;;;;;34.88;20.17;;;;;;;6.42;94.52;99997.00;4067643;29;20305;-83
2022/01/18 02:57:12;;;;;;;33.00;20.30;;;;;;;6.42;94.76;99997.00;4072434;29;20213;-84
2022/01/18 02:59:21;;;;;;;29.58;18.63;;;;;;;6.43;94.25;99988.34;4068532;29;20247;-84
2022/01/18 03:03:44;;;;;;;31.58;19.42;;;;;;;6.41;94.47;99994.47;4067099;29;20601;-83
2022/01/18 03:05:48;;;;;;;32.53;19.73;;;;;;;6.38;94.18;99985.00;4068982;29;20750;-84
2022/01/18 03:07:51;;;;;;;30.15;18.77;;;;;;;6.37;94.38;99979.84;4067315;29;20214;-83
2022/01/18 03:09:54;;;;;;;29.55;18.60;;;;;;;6.37;93.97;99978.09;4067127;29;21672;-83
2022/01/18 03:11:58;;;;;;;31.52;18.20;;;;;;;6.36;94.28;99976.41;4058332;29;20360;-83
2022/01/18 03:14:01;;;;;;;36.45;19.10;;;;;;;6.37;94.02;99983.28;4069345;29;20224;-84
2022/01/18 03:16:05;;;;;;;32.47;19.20;;;;;;;6.40;94.11;99982.38;4066176;29;20203;-84
2022/01/18 03:18:08;;;;;;;31.30;18.58;;;;;;;6.40;94.41;99978.03;4081783;29;20222;-84
2022/01/18 03:20:15;;;;;;;31.27;18.60;;;;;;;6.41;93.74;99979.75;4066241;29;20219;-83
2022/01/18 03:22:18;;;;;;;33.55;18.45;;;;;;;6.41;94.20;99979.75;4071224;28;20301;-83
2022/01/18 03:24:43;;;;;;;33.15;18.90;;;;;;;6.39;93.99;99986.72;4070024;29;20215;-83
2022/01/18 03:29:07;;;;;;;32.17;19.05;;;;;;;6.36;94.21;99991.09;4062425;29;20227;-83
2022/01/18 03:31:10;;;;;;;29.02;18.52;;;;;;;6.32;93.97;99985.13;4067890;29;20840;-83
2022/01/18 03:33:15;;;;;;;35.88;18.50;;;;;;;6.30;93.86;99994.69;4069684;29;21959;-83
2022/01/18 03:35:18;;;;;;;31.45;17.92;;;;;;;6.32;94.27;99989.47;4070077;29;20273;-84
2022/01/18 03:37:21;;;;;;;36.58;20.80;;;;;;;6.32;94.42;99995.50;4057192;29;20212;-83
2022/01/18 03:39:24;;;;;;;32.75;18.65;;;;;;;6.33;94.54;99992.03;4070565;29;20699;-83
2022/01/18 03:41:28;;;;;;;30.85;19.42;;;;;;;6.35;93.99;99989.41;4069347;29;20223;-83
2022/01/18 03:43:31;;;;;;;28.85;18.55;;;;;;;6.34;94.44;99992.88;4059764;29;20245;-83
2022/01/18 03:45:41;;;;;;;30.50;19.27;;;;;;;6.35;94.62;99987.66;4073644;29;20893;-83
2022/01/18 03:47:45;;;;;;;33.75;19.08;;;;;;;6.34;94.08;99991.13;4068385;29;20207;-83
2022/01/18 03:49:50;;;;;;;31.13;18.70;;;;;;;6.32;94.06;99985.13;4066812;29;20219;-83
2022/01/18 03:51:53;;;;;;;36.40;19.75;;;;;;;6.33;94.41;99992.03;4074126;29;20222;-83
2022/01/18 03:53:56;;;;;;;28.88;18.20;;;;;;;6.34;94.91;99992.88;4068443;29;20239;-84
2022/01/18 03:55:59;;;;;;;33.20;19.30;;;;;;;6.35;94.05;99997.19;4072813;29;20218;-83
2022/01/18 03:58:03;;;;;;;33.40;19.85;;;;;;;6.37;94.58;99996.22;4072958;29;20239;-83
2022/01/18 04:00:10;;;;;;;34.50;20.02;;;;;;;6.38;93.97;99992.78;4073389;29;20812;-84
2022/01/18 04:02:18;;;;;;;33.13;19.73;;;;;;;6.41;94.69;100003.06;4075919;29;20227;-83
2022/01/18 04:04:21;;;;;;;35.53;19.85;;;;;;;6.43;93.90;99993.50;4080273;29;20916;-83
2022/01/18 04:06:24;;;;;;;30.92;19.80;;;;;;;6.44;93.78;99999.56;4066606;29;20204;-83
2022/01/18 04:08:27;;;;;;;30.30;19.50;;;;;;;6.42;93.86;100007.38;4073467;29;20219;-83
2022/01/18 04:10:31;;;;;;;31.38;19.10;;;;;;;6.40;94.06;100003.94;4070175;29;20307;-83
2022/01/18 04:12:34;;;;;;;31.27;19.48;;;;;;;6.40;94.19;100009.13;4070131;29;20226;-83
2022/01/18 04:14:37;;;;;;;35.25;18.25;;;;;;;6.38;93.88;100010.91;4076419;29;20196;-83
2022/01/18 04:16:55;;;;;;;30.15;17.58;;;;;;;6.36;94.54;100015.28;4073826;29;20547;-83
2022/01/18 04:19:22;;;;;;;29.05;17.50;;;;;;;6.37;94.09;100016.97;4074625;29;20687;-84
2022/01/18 04:26:52;;;;;;;32.13;18.73;;;;;;;6.37;94.33;100018.72;4069675;29;20282;-83
2022/01/18 04:28:35;;;;;;;34.92;20.25;;;;;;;6.38;94.26;100020.44;4072304;29;20241;-83
2022/01/18 04:30:38;;;;;;;36.65;19.75;;;;;;;6.38;94.28;100020.44;4085871;29;20293;-83
2022/01/18 04:32:41;;;;;;;35.65;19.60;;;;;;;6.39;94.32;100016.94;4073802;29;20211;-83
2022/01/18 04:34:45;;;;;;;36.35;20.58;;;;;;;6.39;94.06;100020.41;4072693;29;20290;-83
2022/01/18 04:36:51;;;;;;;34.00;19.83;;;;;;;6.40;94.95;100024.66;4061161;29;20263;-83
2022/01/18 04:38:54;;;;;;;33.75;21.13;;;;;;;6.42;94.23;100028.09;4073839;29;20267;-83
2022/01/18 04:41:00;;;;;;;34.55;20.25;;;;;;;6.45;94.26;100025.44;4070929;29;20609;-84
2022/01/18 04:43:14;;;;;;;32.13;20.10;;;;;;;6.43;94.26;100031.53;4067235;29;20227;-83
2022/01/18 04:50:03;;;;;;;36.45;20.75;;;;;;;6.45;94.00;100037.53;4072025;29;20246;-84
2022/01/18 04:52:07;;;;;;;41.20;22.48;;;;;;;6.44;93.60;100030.66;4073964;29;20730;-84
2022/01/18 04:54:11;;;;;;;36.92;20.35;;;;;;;6.42;93.86;100035.88;4069829;29;20210;-84
2022/01/18 04:56:17;;;;;;;36.67;20.05;;;;;;;6.42;94.59;100033.28;4069412;29;20336;-83
2022/01/18 04:58:20;;;;;;;32.22;20.02;;;;;;;6.41;94.53;100031.56;4070911;29;20227;-84
2022/01/18 05:00:24;;;;;;;40.53;22.02;;;;;;;6.40;95.16;100035.03;4069583;29;21155;-83
2022/01/18 05:02:27;;;;;;;86.82;41.67;;;;;;;6.41;94.67;100046.28;4072309;28;20243;-83
2022/01/18 05:04:30;;;;;;;60.10;34.22;;;;;;;6.40;94.93;100034.19;4067918;29;20214;-84
2022/01/18 05:06:35;;;;;;;63.40;33.38;;;;;;;6.41;94.55;100044.53;4076328;29;20218;-84
2022/01/18 05:08:39;;;;;;;48.78;28.42;;;;;;;6.43;94.84;100045.34;4073096;29;20568;-84
2022/01/18 05:10:42;;;;;;;42.38;24.83;;;;;;;6.45;95.10;100045.31;4071084;29;20215;-83
2022/01/18 05:12:48;;;;;;;38.45;22.38;;;;;;;6.47;95.12;100041.81;4069529;29;20708;-84
2022/01/18 05:14:53;;;;;;;40.58;22.90;;;;;;;6.49;94.91;100052.97;4074851;29;20207;-84
2022/01/18 05:17:08;;;;;;;41.90;24.40;;;;;;;6.49;94.32;100047.81;4069162;29;20218;-84
2022/01/18 05:19:18;;;;;;;42.97;21.90;;;;;;;6.53;94.74;100046.88;4069054;29;20533;-83
2022/01/18 05:21:25;;;;;;;48.72;22.77;;;;;;;6.54;94.30;100043.41;4077472;29;20706;-83
2022/01/18 05:23:29;;;;;;;42.55;22.00;;;;;;;6.54;94.19;100038.22;4074545;29;20230;-84
2022/01/18 05:25:33;;;;;;;41.85;23.15;;;;;;;6.53;94.35;100040.84;4069874;29;20234;-83
2022/01/18 05:27:36;;;;;;;46.33;22.90;;;;;;;6.55;95.32;100041.66;4069506;29;20732;-84
2022/01/18 05:29:39;;;;;;;46.78;22.55;;;;;;;6.53;95.08;100046.88;4072837;29;20219;-83
2022/01/18 05:31:43;;;;;;;47.78;23.58;;;;;;;6.54;94.35;100047.72;4067078;29;20345;-83
2022/01/18 05:33:47;;;;;;;48.97;23.27;;;;;;;6.56;95.15;100055.41;4069945;29;20267;-83
2022/01/18 05:35:51;;;;;;;51.30;22.60;;;;;;;6.57;94.27;100053.69;4073352;29;20298;-83
2022/01/18 05:37:54;;;;;;;43.75;21.13;;;;;;;6.58;95.15;100051.06;4074648;29;20218;-83
2022/01/18 05:39:58;;;;;;;41.70;22.02;;;;;;;6.59;94.62;100051.91;4073687;29;20726;-83
2022/01/18 05:42:01;;;;;;;48.17;22.40;;;;;;;6.59;94.34;100052.75;4076006;29;20211;-83
2022/01/18 05:44:05;;;;;;;48.65;21.88;;;;;;;6.58;95.01;100053.66;4071417;29;20262;-83
2022/01/18 05:46:08;;;;;;;48.15;23.13;;;;;;;6.59;95.01;100054.50;4067917;29;20230;-83
2022/01/18 05:48:12;;;;;;;40.67;22.13;;;;;;;6.59;94.69;100046.75;4072069;29;21326;-83
2022/01/18 05:50:15;;;;;;;45.03;22.77;;;;;;;6.57;94.82;100040.75;4069332;29;20211;-83
2022/01/18 05:52:18;;;;;;;41.40;21.50;;;;;;;6.56;94.70;100050.25;4068325;29;20215;-83
2022/01/18 05:54:21;;;;;;;49.60;22.38;;;;;;;6.52;94.22;100052.06;4071132;29;20219;-83
2022/01/18 05:56:25;;;;;;;46.42;22.20;;;;;;;6.48;94.30;100043.53;4071107;29;20226;-83
2022/01/18 05:58:28;;;;;;;60.30;29.15;;;;;;;6.49;94.75;100057.31;4069005;29;20259;-83
2022/01/18 06:00:32;;;;;;;69.07;32.60;;;;;;;6.47;94.81;100052.19;4087756;28;20218;-83
2022/01/18 06:02:42;;;;;;;72.93;30.13;;;;;;;6.46;94.30;100050.47;4069613;29;20227;-83
2022/01/18 06:07:08;;;;;;;49.30;23.55;;;;;;;6.43;94.28;100053.09;4074724;29;20202;-83
2022/01/18 06:09:11;;;;;;;45.25;22.27;;;;;;;6.44;94.36;100053.97;4069769;29;20549;-83
2022/01/18 06:11:14;;;;;;;45.05;22.13;;;;;;;6.43;94.42;100062.63;4069614;29;20210;-83
2022/01/18 06:13:19;;;;;;;47.20;22.45;;;;;;;6.44;94.50;100061.75;4068520;29;20274;-83
2022/01/18 06:15:22;;;;;;;45.10;21.20;;;;;;;6.43;93.77;100066.06;4065950;29;20214;-83
2022/01/18 06:17:25;;;;;;;44.03;22.48;;;;;;;6.43;93.83;100057.44;4066142;29;20302;-83
2022/01/18 06:19:29;;;;;;;46.15;23.15;;;;;;;6.41;93.95;100057.47;4075185;29;20219;-83
2022/01/18 06:21:32;;;;;;;43.55;21.65;;;;;;;6.43;93.18;100065.22;4072234;29;20211;-83
2022/01/18 06:23:35;;;;;;;50.95;24.50;;;;;;;6.41;93.34;100061.81;4072996;28;20231;-83
2022/01/18 06:25:38;;;;;;;50.60;22.65;;;;;;;6.40;93.78;100067.88;4068313;29;20823;-83
2022/01/18 06:27:41;;;;;;;49.85;23.75;;;;;;;6.38;93.56;100067.91;4072377;29;20215;-83
2022/01/18 06:29:46;;;;;;;51.58;23.95;;;;;;;6.39;93.70;100068.75;4065821;29;20634;-83
2022/01/18 06:31:49;;;;;;;59.22;26.48;;;;;;;6.42;93.51;100068.69;4069608;29;20676;-83
2022/01/18 06:33:52;;;;;;;56.58;24.63;;;;;;;6.39;93.32;100071.34;4074639;29;20735;-83
2022/01/18 06:35:59;;;;;;;51.90;25.83;;;;;;;6.35;93.43;100077.50;4065017;29;20211;-84
2022/01/18 06:38:02;;;;;;;65.60;30.70;;;;;;;6.36;93.67;100085.22;4065439;29;20329;-83
2022/01/18 06:40:07;;;;;;;64.18;29.40;;;;;;;6.38;94.24;100091.22;4072841;29;20695;-83
2022/01/18 06:42:12;;;;;;;52.20;24.52;;;;;;;6.36;94.12;100085.22;4068668;29;20204;-83
2022/01/18 06:44:15;;;;;;;50.67;23.52;;;;;;;6.33;93.65;100089.59;4073632;29;20324;-83
2022/01/18 06:46:20;;;;;;;66.22;30.27;;;;;;;6.28;94.03;100091.44;4057930;29;20219;-83
2022/01/18 06:48:23;;;;;;;59.42;28.45;;;;;;;6.26;93.65;100094.06;4059515;29;20915;-83
2022/01/18 06:50:26;;;;;;;52.88;25.42;;;;;;;6.23;93.74;100094.13;4075747;29;20265;-83
2022/01/18 06:52:29;;;;;;;51.10;24.98;;;;;;;6.22;93.66;100096.72;4069428;29;20246;-83
2022/01/18 06:54:32;;;;;;;55.08;25.85;;;;;;;6.25;93.56;100107.03;4069817;29;20218;-83
2022/01/18 06:56:35;;;;;;;48.65;22.75;;;;;;;6.27;93.52;100110.44;4058843;29;20239;-83
2022/01/18 06:58:39;;;;;;;52.80;23.77;;;;;;;6.27;93.84;100103.53;4074037;29;20628;-83
2022/01/18 07:00:42;;;;;;;48.60;25.52;;;;;;;6.28;93.63;100118.19;4074863;29;20786;-83
2022/01/18 07:02:47;;;;;;;49.85;29.27;;;;;;;6.26;93.15;100109.59;4070265;29;20225;-82
2022/01/18 07:04:51;;;;;;;38.88;19.98;;;;;;;6.23;93.63;100122.59;4059497;29;20297;-83
2022/01/18 07:06:54;;;;;;;42.20;19.58;;;;;;;6.21;93.54;100126.13;4073152;29;20701;-83
2022/01/18 07:08:57;;;;;;;34.00;17.17;;;;;;;6.17;93.83;100124.47;4066701;29;20223;-83
2022/01/18 07:11:00;;;;;;;37.38;18.80;;;;;;;6.14;94.03;100130.53;4072382;29;20235;-82
2022/01/18 07:13:04;;;;;;;35.63;17.30;;;;;;;6.10;93.82;100128.03;4070562;29;20501;-82
2022/01/18 07:15:09;;;;;;;33.10;17.00;;;;;;;6.05;93.66;100127.28;4062207;29;20211;-82
2022/01/18 07:17:12;;;;;;;33.38;15.90;;;;;;;5.96;94.26;100129.19;4062304;29;20223;-82
2022/01/18 07:19:17;;;;;;;34.72;15.73;;;;;;;5.96;93.83;100129.19;4076398;29;20218;-82
2022/01/18 07:21:20;;;;;;;36.28;16.30;;;;;;;5.98;94.27;100135.19;4074541;29;20218;-84
2022/01/18 07:23:23;;;;;;;33.60;15.30;;;;;;;5.98;94.58;100137.75;4077751;29;20625;-84
2022/01/18 07:25:26;;;;;;;35.20;16.88;;;;;;;5.98;94.51;100132.59;4073237;29;20226;-85
2022/01/18 07:27:30;;;;;;;36.95;18.35;;;;;;;5.95;94.46;100137.81;4072954;29;20234;-86
2022/01/18 07:29:33;;;;;;;36.05;16.63;;;;;;;5.92;94.35;100135.28;4062512;29;20207;-86
2022/01/18 07:31:36;;;;;;;28.23;15.10;;;;;;;5.90;94.45;100142.22;4074649;29;20207;-85
2022/01/18 07:33:40;;;;;;;33.67;15.05;;;;;;;5.86;95.06;100137.97;4075722;29;20199;-84
2022/01/18 07:35:45;;;;;;;40.47;17.38;;;;;;;5.81;94.17;100135.47;4079234;29;20996;-85
2022/01/18 07:37:49;;;;;;;36.22;16.00;;;;;;;5.78;94.34;100139.84;4078435;29;20221;-84
2022/01/18 07:39:53;;;;;;;34.42;15.65;;;;;;;5.74;93.96;100139.06;4082149;29;20298;-85
2022/01/18 07:41:56;;;;;;;29.55;13.85;;;;;;;5.68;94.10;100138.25;4077855;29;20219;-84
2022/01/18 07:43:59;;;;;;;27.45;14.43;;;;;;;5.66;93.87;100137.41;4074950;29;20231;-84
2022/01/18 07:46:03;;;;;;;31.58;16.75;;;;;;;5.66;93.69;100145.19;4077989;29;20225;-84
2022/01/18 07:48:06;;;;;;;31.30;15.43;;;;;;;5.65;93.28;100154.69;4078164;29;20211;-82
2022/01/18 07:50:10;;;;;;;29.17;15.45;;;;;;;5.58;93.46;100141.88;4074702;29;20210;-81
2022/01/18 07:52:14;;;;;;;31.50;15.52;;;;;;;5.60;93.07;100147.88;4078518;29;20215;-82
2022/01/18 07:54:17;;;;;;;31.52;14.63;;;;;;;5.58;93.47;100144.47;4073897;29;20668;-83
2022/01/18 07:56:20;;;;;;;27.23;15.35;;;;;;;5.61;93.76;100147.00;4065168;29;20310;-84
2022/01/18 07:58:24;;;;;;;33.15;17.02;;;;;;;5.65;93.80;100138.28;4066867;29;20645;-84
2022/01/18 08:00:27;;;;;;;26.77;13.63;;;;;;;5.66;93.44;100146.03;4077763;29;20297;-85
2022/01/18 08:02:32;;;;;;;26.48;14.55;;;;;;;5.76;93.59;100142.47;4064945;29;20223;-84
2022/01/18 08:04:35;;;;;;;25.83;14.05;;;;;;;5.75;92.70;100155.44;4056614;29;20269;-83
2022/01/18 08:06:38;;;;;;;28.15;13.80;;;;;;;5.79;92.98;100141.56;4061807;29;20215;-83
2022/01/18 08:08:43;;;;;;;26.48;14.40;;;;;;;5.78;93.00;100158.81;4073922;29;20739;-83
2022/01/18 08:10:46;;;;;;;27.02;14.90;;;;;;;5.92;93.28;100150.81;4070210;29;20717;-83
2022/01/18 08:12:51;;;;;;;28.67;15.38;;;;;;;6.08;93.45;100150.53;4073921;29;20238;-83
2022/01/18 08:15:00;;;;;;;28.63;12.88;;;;;;;6.24;93.28;100145.03;4072079;29;20213;-83
2022/01/18 08:17:23;;;;;;;24.20;13.77;;;;;;;6.38;93.01;100139.63;4059676;29;20204;-83
2022/01/18 08:19:27;;;;;;;26.55;14.10;;;;;;;6.52;92.18;100143.63;4071501;29;20218;-82
2022/01/18 08:21:30;;;;;;;24.73;13.95;;;;;;;6.63;92.56;100139.06;4057247;29;20664;-83
2022/01/18 08:23:33;;;;;;;26.73;14.75;;;;;;;6.74;92.43;100143.19;4069906;29;20928;-83
2022/01/18 08:25:39;;;;;;;28.35;14.50;;;;;;;6.87;91.67;100152.44;4078296;29;20705;-83
2022/01/18 08:27:43;;;;;;;28.50;15.43;;;;;;;7.00;91.66;100158.19;4078252;28;20214;-83
2022/01/18 08:29:46;;;;;;;28.45;16.73;;;;;;;7.03;89.54;100162.41;4091066;29;20210;-83
2022/01/18 08:31:51;;;;;;;28.98;17.25;;;;;;;7.05;89.27;100165.84;4076357;29;20211;-83
2022/01/18 08:33:54;;;;;;;30.30;17.40;;;;;;;7.11;90.76;100167.44;4074813;29;20238;-83
2022/01/18 08:35:59;;;;;;;42.22;16.35;;;;;;;6.99;89.65;100165.13;4081520;29;20613;-83
2022/01/18 08:38:02;;;;;;;80.40;17.92;;;;;;;6.84;90.68;100165.44;4080236;29;21267;-83
2022/01/18 08:40:06;;;;;;;53.83;18.70;;;;;;;6.70;90.84;100172.63;4077696;29;20211;-83
2022/01/18 08:42:11;;;;;;;28.52;14.25;;;;;;;6.64;90.96;100174.50;4072546;29;20202;-83
2022/01/18 08:44:14;;;;;;;29.92;13.90;;;;;;;6.62;91.25;100166.75;4077639;29;20218;-83
2022/01/18 08:46:17;;;;;;;45.28;16.25;;;;;;;6.60;90.79;100167.69;4074626;29;20249;-83
2022/01/18 08:48:20;;;;;;;55.67;16.05;;;;;;;6.53;91.16;100160.91;4079656;29;20199;-83
2022/01/18 08:50:23;;;;;;;30.30;13.50;;;;;;;6.52;91.82;100159.19;4074297;29;20199;-83
2022/01/18 08:52:27;;;;;;;30.75;13.10;;;;;;;6.46;91.55;100154.09;4074716;29;20250;-83
2022/01/18 08:54:30;;;;;;;36.20;13.15;;;;;;;6.46;91.69;100161.03;4069998;29;20786;-85
2022/01/18 08:56:33;;;;;;;45.97;14.35;;;;;;;6.53;91.59;100166.06;4074617;29;20200;-86
2022/01/18 08:58:57;;;;;;;42.40;14.52;;;;;;;6.65;92.23;100160.66;4068738;29;20215;-86
2022/01/18 09:01:00;;;;;;;40.38;14.70;;;;;;;6.76;92.34;100163.88;4076041;29;20569;-85
2022/01/18 09:03:04;;;;;;;50.95;18.85;;;;;;;6.85;91.35;100158.50;4078346;29;20211;-86
2022/01/18 09:05:08;;;;;;;22.38;13.00;;;;;;;6.97;91.33;100164.28;4069584;29;20282;-86
2022/01/18 09:07:11;;;;;;;33.38;12.85;;;;;;;7.06;92.03;100159.75;4076435;29;20344;-85
2022/01/18 09:09:16;;;;;;;29.95;13.23;;;;;;;7.15;91.89;100166.50;4077539;29;20216;-86
2022/01/18 09:11:19;;;;;;;22.95;11.75;;;;;;;7.24;91.08;100171.50;4070242;29;20211;-86
2022/01/18 09:13:23;;;;;;;23.75;14.52;;;;;;;7.21;90.97;100169.81;4079093;29;20255;-86
2022/01/18 09:15:27;;;;;;;28.20;14.02;;;;;;;7.23;89.92;100167.19;4076026;29;20257;-88
2022/01/18 09:17:30;;;;;;;22.58;13.88;;;;;;;7.26;89.82;100165.41;4077530;29;20219;-86
2022/01/18 09:19:33;;;;;;;22.13;13.13;;;;;;;7.35;91.34;100161.72;4057726;29;20223;-87
2022/01/18 09:21:37;;;;;;;25.98;15.27;;;;;;;7.39;89.82;100163.38;4077296;29;20301;-86
2022/01/18 09:23:42;;;;;;;25.52;14.10;;;;;;;7.34;91.19;100155.69;4071157;29;20211;-86
2022/01/18 09:25:45;;;;;;;27.13;15.45;;;;;;;7.40;91.49;100162.50;4056024;29;20231;-87
2022/01/18 09:27:53;;;;;;;24.90;15.45;;;;;;;7.43;91.01;100163.28;4071480;29;20594;-86
2022/01/18 09:29:57;;;;;;;24.52;16.25;;;;;;;7.48;91.00;100170.03;4072053;28;20245;-87
2022/01/18 09:32:01;;;;;;;29.85;15.57;;;;;;;7.59;89.74;100167.19;4057278;29;20621;-87
2022/01/18 09:34:06;;;;;;;22.55;13.65;;;;;;;7.64;89.35;100171.41;4086300;29;20217;-87
2022/01/18 09:36:10;;;;;;;41.72;24.52;;;;;;;7.76;88.87;100170.28;4073581;29;20278;-88
2022/01/18 09:38:13;;;;;;;23.83;14.98;;;;;;;7.85;87.35;100170.03;4078141;29;20245;-87
2022/01/18 09:40:19;;;;;;;34.90;20.38;;;;;;;7.92;88.56;100166.41;4056554;29;20311;-87
2022/01/18 09:42:31;;;;;;;23.30;14.18;;;;;;;8.03;89.29;100171.28;4059129;29;20216;-87
2022/01/18 09:44:34;;;;;;;41.55;23.92;;;;;;;8.16;88.52;100172.75;4070709;29;20541;-87
2022/01/18 09:46:37;;;;;;;27.55;16.20;;;;;;;8.28;86.97;100180.19;4060690;29;20276;-87
2022/01/18 09:48:42;;;;;;;49.47;28.15;;;;;;;8.40;86.47;100184.22;4069680;29;20294;-87
2022/01/18 09:50:47;;;;;;;24.65;15.05;;;;;;;8.49;87.73;100193.50;4071638;29;20211;-87
2022/01/18 09:52:53;;;;;;;23.85;15.35;;;;;;;8.57;88.23;100199.34;4077091;29;20218;-87
2022/01/18 09:54:57;;;;;;;23.00;14.20;;;;;;;8.67;88.20;100206.00;4057461;29;20216;-87
2022/01/18 09:57:00;;;;;;;16.52;10.50;;;;;;;8.70;87.90;100202.47;4071196;29;20643;-87
2022/01/18 09:59:04;;;;;;;17.30;10.40;;;;;;;8.81;88.18;100195.22;4069558;29;20542;-87
2022/01/18 10:01:07;;;;;;;15.68;10.93;;;;;;;9.03;87.92;100199.78;4061297;29;20210;-87
2022/01/18 10:03:29;;;;;;;18.48;10.38;;;;;;;9.29;87.35;100194.66;4056335;29;20258;-87
2022/01/18 10:05:34;;;;;;;15.05;9.45;;;;;;;9.24;87.12;100202.59;4072496;29;20233;-88
2022/01/18 10:07:38;;;;;;;12.73;8.85;;;;;;;9.13;85.23;100202.06;4073242;29;20238;-87
2022/01/18 10:09:41;;;;;;;15.48;9.18;;;;;;;9.02;85.28;100196.34;4059249;29;20258;-87
2022/01/18 10:12:00;;;;;;;16.13;9.45;;;;;;;8.95;86.58;100193.94;4087039;29;20239;-87
2022/01/18 10:14:03;;;;;;;17.50;8.88;;;;;;;8.88;86.43;100192.41;4076462;29;20211;-87
2022/01/18 10:16:09;;;;;;;13.40;8.75;;;;;;;8.81;86.18;100188.28;4076703;29;20199;-87
2022/01/18 10:18:12;;;;;;;16.80;9.70;;;;;;;8.79;86.05;100181.41;4059569;29;20674;-87
2022/01/18 10:20:20;;;;;;;16.73;9.90;;;;;;;8.85;86.86;100191.66;4076604;29;20207;-87